createdAt,value
2018-07-20T00:00:25.679Z,63.41
2018-07-20T00:01:25.356Z,62.73
2018-07-20T00:02:25.296Z,63.02
2018-07-20T00:03:24.860Z,62.73
2018-07-20T00:04:24.843Z,62.73
2018-07-20T00:05:25.294Z,62.25
2018-07-20T00:06:25.278Z,61.77
2018-07-20T00:07:25.278Z,61.19
2018-07-20T00:08:25.272Z,61.96
2018-07-20T00:09:25.245Z,61.58
2018-07-20T00:10:25.247Z,61.38
2018-07-20T00:11:27.075Z,61.58
2018-07-20T00:12:25.228Z,61.87
2018-07-20T00:13:28.112Z,62.06
2018-07-20T00:14:24.908Z,62.35
2018-07-20T00:15:25.299Z,62.15
2018-07-20T00:16:24.933Z,61.96
2018-07-20T00:17:25.190Z,61.87
2018-07-20T00:18:25.336Z,61.19
2018-07-20T00:19:25.278Z,61.29
2018-07-20T00:20:25.299Z,60.90
2018-07-20T00:21:27.111Z,61.10
2018-07-20T00:22:25.293Z,61.58
2018-07-20T00:23:25.307Z,61.00
2018-07-20T00:24:25.647Z,60.90
2018-07-20T00:25:26.732Z,60.80
2018-07-20T00:26:25.301Z,60.42
2018-07-20T00:27:25.358Z,60.90
2018-07-20T00:28:24.975Z,60.90
2018-07-20T00:29:25.353Z,60.80
2018-07-20T00:30:24.953Z,60.61
2018-07-20T00:31:25.172Z,60.71
2018-07-20T00:32:25.626Z,60.80
2018-07-20T00:34:24.220Z,60.52
2018-07-20T00:35:24.906Z,60.32
2018-07-20T00:36:25.632Z,60.23
2018-07-20T00:37:24.894Z,59.94
2018-07-20T00:38:25.641Z,60.03
2018-07-20T00:39:25.288Z,60.83
2018-07-20T00:40:25.829Z,60.03
2018-07-20T00:41:25.298Z,59.30
2018-07-20T00:42:25.643Z,59.78
2018-07-20T00:43:24.921Z,59.65
2018-07-20T00:44:25.621Z,59.65
2018-07-20T00:45:25.286Z,59.55
2018-07-20T00:46:24.970Z,59.45
2018-07-20T00:47:25.688Z,59.65
2018-07-20T00:48:25.290Z,59.84
2018-07-20T00:49:24.933Z,60.32
2018-07-20T00:50:25.676Z,60.42
2018-07-20T00:51:25.683Z,59.65
2018-07-20T00:52:24.961Z,59.94
2018-07-20T00:53:25.297Z,60.32
2018-07-20T00:54:25.689Z,60.13
2018-07-20T00:55:24.971Z,60.23
2018-07-20T00:56:25.334Z,60.42
2018-07-20T00:57:25.301Z,60.61
2018-07-20T00:58:24.903Z,60.52
2018-07-20T00:59:24.887Z,60.03
2018-07-20T01:00:25.432Z,60.23
2018-07-20T01:01:24.905Z,60.42
2018-07-20T01:02:25.238Z,61.00
2018-07-20T01:03:25.289Z,60.23
2018-07-20T01:04:24.933Z,60.49
2018-07-20T01:05:25.266Z,60.23
2018-07-20T01:06:25.647Z,60.03
2018-07-20T01:07:24.931Z,59.84
2018-07-20T01:08:25.281Z,60.32
2018-07-20T01:09:25.297Z,60.52
2018-07-20T01:10:24.944Z,59.65
2018-07-20T01:11:24.976Z,59.27
2018-07-20T01:12:25.299Z,59.75
2018-07-20T01:13:24.999Z,59.75
2018-07-20T01:14:25.677Z,59.45
2018-07-20T01:15:25.431Z,59.55
2018-07-20T01:16:25.003Z,59.75
2018-07-20T01:17:25.712Z,59.94
2018-07-20T01:18:27.346Z,60.52
2018-07-20T01:19:24.996Z,60.58
2018-07-20T01:20:24.979Z,60.58
2018-07-20T01:21:24.974Z,60.68
2018-07-20T01:22:24.990Z,60.77
2018-07-20T01:23:24.936Z,61.29
2018-07-20T01:24:25.755Z,60.58
2018-07-20T01:25:24.973Z,60.58
2018-07-20T01:26:25.844Z,60.97
2018-07-20T01:27:25.614Z,60.87
2018-07-20T01:28:24.924Z,60.87
2018-07-20T01:29:25.631Z,60.87
2018-07-20T01:30:25.310Z,61.55
2018-07-20T01:31:24.955Z,61.45
2018-07-20T01:32:24.926Z,62.12
2018-07-20T01:33:25.620Z,62.51
2018-07-20T01:34:24.997Z,61.25
2018-07-20T01:35:25.327Z,60.87
2018-07-20T01:36:25.373Z,61.45
2018-07-20T01:37:24.978Z,61.74
2018-07-20T01:38:25.348Z,61.74
2018-07-20T01:39:25.707Z,61.55
2018-07-20T01:40:24.272Z,61.55
2018-07-20T01:41:27.184Z,61.55
2018-07-20T01:42:25.344Z,61.55
2018-07-20T01:43:24.991Z,61.55
2018-07-20T01:44:24.307Z,61.45
2018-07-20T01:45:25.365Z,61.55
2018-07-20T01:46:24.984Z,61.16
2018-07-20T01:47:25.034Z,60.68
2018-07-20T01:48:25.369Z,60.58
2018-07-20T01:49:25.224Z,60.10
2018-07-20T01:50:25.400Z,60.20
2018-07-20T01:51:25.780Z,60.30
2018-07-20T01:52:25.053Z,60.10
2018-07-20T01:53:24.958Z,60.20
2018-07-20T01:54:24.980Z,60.00
2018-07-20T01:55:24.965Z,60.58
2018-07-20T01:56:25.381Z,60.77
2018-07-20T01:57:25.299Z,61.25
2018-07-20T01:58:24.976Z,61.07
2018-07-20T01:59:25.693Z,61.16
2018-07-20T02:00:25.352Z,61.55
2018-07-20T02:01:24.989Z,61.65
2018-07-20T02:02:26.020Z,61.45
2018-07-20T02:03:25.716Z,61.52
2018-07-20T02:04:24.335Z,61.61
2018-07-20T02:05:24.984Z,60.75
2018-07-20T02:06:24.989Z,60.87
2018-07-20T02:07:24.994Z,60.17
2018-07-20T02:08:25.378Z,60.27
2018-07-20T02:09:24.321Z,60.27
2018-07-20T02:10:24.303Z,60.27
2018-07-20T02:11:27.171Z,60.30
2018-07-20T02:12:25.381Z,60.30
2018-07-20T02:13:25.007Z,59.52
2018-07-20T02:14:24.476Z,59.43
2018-07-20T02:15:25.772Z,59.04
2018-07-20T02:16:24.993Z,60.10
2018-07-20T02:17:24.303Z,60.30
2018-07-20T02:18:25.355Z,60.30
2018-07-20T02:19:24.311Z,60.10
2018-07-20T02:20:25.407Z,59.81
2018-07-20T02:21:25.793Z,60.20
2018-07-20T02:22:25.035Z,60.20
2018-07-20T02:23:25.640Z,60.20
2018-07-20T02:24:24.309Z,59.97
2018-07-20T02:25:25.002Z,60.17
2018-07-20T02:26:25.347Z,60.55
2018-07-20T02:27:25.011Z,60.55
2018-07-20T02:28:24.987Z,61.13
2018-07-20T02:29:28.032Z,60.58
2018-07-20T02:30:25.010Z,60.68
2018-07-20T02:31:25.011Z,60.55
2018-07-20T02:32:24.332Z,60.07
2018-07-20T02:33:25.038Z,60.58
2018-07-20T02:34:25.014Z,60.17
2018-07-20T02:35:25.003Z,61.13
2018-07-20T02:36:25.351Z,60.75
2018-07-20T02:37:25.023Z,61.22
2018-07-20T02:38:25.053Z,61.13
2018-07-20T02:39:25.006Z,60.46
2018-07-20T02:40:25.380Z,60.49
2018-07-20T02:41:25.420Z,60.30
2018-07-20T02:42:25.356Z,60.20
2018-07-20T02:43:24.335Z,60.30
2018-07-20T02:44:25.379Z,60.00
2018-07-20T02:45:25.410Z,59.97
2018-07-20T02:46:24.349Z,60.77
2018-07-20T02:47:25.413Z,60.75
2018-07-20T02:48:25.410Z,61.42
2018-07-20T02:49:25.042Z,61.32
2018-07-20T02:50:24.990Z,61.61
2018-07-20T02:51:25.640Z,61.71
2018-07-20T02:52:24.992Z,61.42
2018-07-20T02:53:25.704Z,61.42
2018-07-20T02:54:25.382Z,61.42
2018-07-20T02:55:25.001Z,61.52
2018-07-20T02:56:25.350Z,61.32
2018-07-20T02:57:25.655Z,61.32
2018-07-20T02:58:25.053Z,61.13
2018-07-20T02:59:30.979Z,61.42
2018-07-20T03:00:25.045Z,61.13
2018-07-20T03:01:24.997Z,61.71
2018-07-20T03:02:25.350Z,61.42
2018-07-20T03:03:25.362Z,61.61
2018-07-20T03:04:26.907Z,61.42
2018-07-20T03:05:25.684Z,61.32
2018-07-20T03:06:25.389Z,61.22
2018-07-20T03:07:25.172Z,61.90
2018-07-20T03:08:27.209Z,61.71
2018-07-20T03:09:25.413Z,62.26
2018-07-20T03:10:25.114Z,62.19
2018-07-20T03:11:25.043Z,61.87
2018-07-20T03:12:25.063Z,61.97
2018-07-20T03:13:25.087Z,62.48
2018-07-20T03:14:25.391Z,62.26
2018-07-20T03:15:25.385Z,62.09
2018-07-20T03:16:25.132Z,62.45
2018-07-20T03:17:25.750Z,62.64
2018-07-20T03:18:25.383Z,62.74
2018-07-20T03:19:24.990Z,62.45
2018-07-20T03:20:25.647Z,63.02
2018-07-20T03:21:25.661Z,63.31
2018-07-20T03:22:24.976Z,62.74
2018-07-20T03:23:25.041Z,63.41
2018-07-20T03:24:25.422Z,63.22
2018-07-20T03:25:25.432Z,63.02
2018-07-20T03:26:25.357Z,63.70
2018-07-20T03:27:25.731Z,63.60
2018-07-20T03:28:33.925Z,63.41
2018-07-20T03:29:25.442Z,63.31
2018-07-20T03:30:25.394Z,63.51
2018-07-20T03:32:25.433Z,63.99
2018-07-20T03:33:25.157Z,63.99
2018-07-20T03:34:25.032Z,63.22
2018-07-20T03:35:25.473Z,64.18
2018-07-20T03:36:25.470Z,63.70
2018-07-20T03:37:25.477Z,63.79
2018-07-20T03:38:25.372Z,63.99
2018-07-20T03:39:25.402Z,63.99
2018-07-20T03:40:25.844Z,64.47
2018-07-20T03:41:27.227Z,64.66
2018-07-20T03:42:25.510Z,64.56
2018-07-20T03:43:25.756Z,64.76
2018-07-20T03:44:25.114Z,65.24
2018-07-20T03:45:25.066Z,64.86
2018-07-20T03:46:25.360Z,64.66
2018-07-20T03:47:25.360Z,64.66
2018-07-20T03:48:25.295Z,64.66
2018-07-20T03:49:25.719Z,64.95
2018-07-20T03:50:25.935Z,65.14
2018-07-20T03:51:25.901Z,65.33
2018-07-20T03:52:25.388Z,65.14
2018-07-20T03:53:25.080Z,64.86
2018-07-20T03:54:25.114Z,65.33
2018-07-20T03:55:25.116Z,64.95
2018-07-20T03:56:25.052Z,64.47
2018-07-20T03:57:25.333Z,64.47
2018-07-20T03:58:25.063Z,64.86
2018-07-20T03:59:25.482Z,65.33
2018-07-20T04:00:25.421Z,64.56
2018-07-20T04:01:25.904Z,64.66
2018-07-20T04:02:25.565Z,64.66
2018-07-20T04:03:24.345Z,64.37
2018-07-20T04:04:25.460Z,64.28
2018-07-20T04:05:25.071Z,64.28
2018-07-20T04:06:25.065Z,64.63
2018-07-20T04:07:25.058Z,64.66
2018-07-20T04:08:25.146Z,65.01
2018-07-20T04:09:25.499Z,64.86
2018-07-20T04:10:25.490Z,65.01
2018-07-20T04:11:25.782Z,64.73
2018-07-20T04:12:25.512Z,65.59
2018-07-20T04:13:31.726Z,65.11
2018-07-20T04:14:25.447Z,65.20
2018-07-20T04:15:25.436Z,65.59
2018-07-20T04:16:25.691Z,65.40
2018-07-20T04:17:25.029Z,65.11
2018-07-20T04:18:25.061Z,65.78
2018-07-20T04:19:26.408Z,66.55
2018-07-20T04:20:25.411Z,66.39
2018-07-20T04:21:25.437Z,66.27
2018-07-20T04:22:25.447Z,65.78
2018-07-20T04:23:25.719Z,65.88
2018-07-20T04:24:25.706Z,66.17
2018-07-20T04:25:25.730Z,66.84
2018-07-20T04:26:25.365Z,67.13
2018-07-20T04:27:25.694Z,67.71
2018-07-20T04:28:31.702Z,67.51
2018-07-20T04:29:24.937Z,67.80
2018-07-20T04:30:25.363Z,67.51
2018-07-20T04:31:25.377Z,66.74
2018-07-20T04:32:25.427Z,66.65
2018-07-20T04:33:25.730Z,67.03
2018-07-20T04:34:25.429Z,67.22
2018-07-20T04:35:25.725Z,67.51
2018-07-20T04:36:25.448Z,67.71
2018-07-20T04:37:25.684Z,67.80
2018-07-20T04:38:25.419Z,68.29
2018-07-20T04:39:25.089Z,68.19
2018-07-20T04:40:25.042Z,65.97
2018-07-20T04:41:25.003Z,66.84
2018-07-20T04:42:25.364Z,66.07
2018-07-20T04:43:25.700Z,66.36
2018-07-20T04:44:25.437Z,67.26
2018-07-20T04:45:24.339Z,67.71
2018-07-20T04:46:27.402Z,68.57
2018-07-20T04:47:25.025Z,69.15
2018-07-20T04:48:25.376Z,69.24
2018-07-20T04:49:25.065Z,69.24
2018-07-20T04:50:24.319Z,69.73
2018-07-20T04:51:25.004Z,69.73
2018-07-20T04:52:25.357Z,69.63
2018-07-20T04:53:25.348Z,69.53
2018-07-20T04:54:25.389Z,70.11
2018-07-20T04:55:26.025Z,70.01
2018-07-20T04:56:25.550Z,70.11
2018-07-20T04:57:25.901Z,69.53
2018-07-20T04:58:25.391Z,69.53
2018-07-20T04:59:25.393Z,68.76
2018-07-20T05:01:57.771Z,69.24
2018-07-20T05:02:59.255Z,68.70
2018-07-20T05:04:53.453Z,67.55
2018-07-20T05:05:54.111Z,66.78
2018-07-20T05:07:48.331Z,66.88
2018-07-20T05:08:47.654Z,66.65
2018-07-20T05:09:47.986Z,67.42
2018-07-20T05:10:48.082Z,66.97
2018-07-20T05:11:48.115Z,66.88
2018-07-20T05:12:48.455Z,67.45
2018-07-20T05:13:48.442Z,66.78
2018-07-20T05:14:48.448Z,67.26
2018-07-20T05:15:48.767Z,67.32
2018-07-20T05:16:46.973Z,68.29
2018-07-20T05:17:48.402Z,68.80
2018-07-20T05:18:48.161Z,68.99
2018-07-20T05:19:47.012Z,69.44
2018-07-20T05:20:46.974Z,70.05
2018-07-20T05:21:47.650Z,69.95
2018-07-20T05:22:46.968Z,69.85
2018-07-20T05:23:46.986Z,69.47
2018-07-20T05:24:48.242Z,70.50
2018-07-20T05:25:47.050Z,70.88
2018-07-20T05:26:48.718Z,69.76
2018-07-20T05:27:48.269Z,69.06
2018-07-20T05:28:50.212Z,68.76
2018-07-20T05:29:48.061Z,68.38
2018-07-20T05:30:46.982Z,67.71
2018-07-20T05:31:47.081Z,67.90
2018-07-20T05:32:46.966Z,67.93
2018-07-20T05:33:46.961Z,67.65
2018-07-20T05:34:46.986Z,67.93
2018-07-20T05:36:10.791Z,67.74
2018-07-20T05:36:48.100Z,68.41
2018-07-20T05:37:48.035Z,68.80
2018-07-20T05:38:47.659Z,69.09
2018-07-20T05:39:47.657Z,68.32
2018-07-20T05:40:48.457Z,67.74
2018-07-20T05:41:46.999Z,68.03
2018-07-20T05:42:46.973Z,67.83
2018-07-20T05:43:47.392Z,68.51
2018-07-20T05:44:48.090Z,68.80
2018-07-20T05:45:47.403Z,68.80
2018-07-20T05:46:47.706Z,68.41
2018-07-20T05:47:49.032Z,68.13
2018-07-20T05:48:50.106Z,67.93
2018-07-20T05:49:46.996Z,67.55
2018-07-20T05:50:46.977Z,66.81
2018-07-20T05:51:46.966Z,65.75
2018-07-20T05:52:47.984Z,66.78
2018-07-20T05:53:46.983Z,67.65
2018-07-20T05:54:46.980Z,67.87
2018-07-20T05:55:46.975Z,68.35
2018-07-20T05:56:46.973Z,67.97
2018-07-20T05:57:46.985Z,68.84
2018-07-20T05:58:48.238Z,68.51
2018-07-20T05:59:47.694Z,67.87
2018-07-20T06:00:46.975Z,67.68
2018-07-20T06:01:47.702Z,67.97
2018-07-20T06:02:46.993Z,67.39
2018-07-20T06:03:46.972Z,66.91
2018-07-20T06:04:47.712Z,66.24
2018-07-20T06:05:46.976Z,65.56
2018-07-20T06:06:50.347Z,65.66
2018-07-20T06:07:46.972Z,65.56
2018-07-20T06:08:48.077Z,66.62
2018-07-20T06:09:47.015Z,66.62
2018-07-20T06:10:46.973Z,66.14
2018-07-20T06:11:47.639Z,65.40
2018-07-20T06:12:46.974Z,65.69
2018-07-20T06:13:46.981Z,65.40
2018-07-20T06:14:47.947Z,64.73
2018-07-20T06:15:46.964Z,65.11
2018-07-20T06:16:46.982Z,65.46
2018-07-20T06:17:47.000Z,65.27
2018-07-20T06:18:46.988Z,65.66
2018-07-20T06:19:46.974Z,65.88
2018-07-20T06:20:46.956Z,64.82
2018-07-20T06:21:46.970Z,65.01
2018-07-20T06:22:47.038Z,64.82
2018-07-20T06:23:47.013Z,65.40
2018-07-20T06:24:46.970Z,65.01
2018-07-20T06:25:46.984Z,64.82
2018-07-20T06:26:47.998Z,64.76
2018-07-20T06:27:46.960Z,64.34
2018-07-20T06:28:46.966Z,64.34
2018-07-20T06:29:46.972Z,65.11
2018-07-20T06:30:46.986Z,64.76
2018-07-20T06:31:47.008Z,64.82
2018-07-20T06:32:46.980Z,63.57
2018-07-20T06:34:14.786Z,63.57
2018-07-20T06:35:14.881Z,63.21
2018-07-20T06:35:46.986Z,63.60
2018-07-20T06:36:49.824Z,63.67
2018-07-20T06:37:47.052Z,63.28
2018-07-20T06:38:48.005Z,63.38
2018-07-20T06:39:47.004Z,64.34
2018-07-20T06:41:07.986Z,64.53
2018-07-20T06:41:46.982Z,64.47
2018-07-20T06:42:46.982Z,63.50
2018-07-20T06:43:46.982Z,63.60
2018-07-20T06:44:46.986Z,63.41
2018-07-20T06:45:47.018Z,63.70
2018-07-20T06:46:46.995Z,63.79
2018-07-20T06:47:46.988Z,63.89
2018-07-20T06:48:46.983Z,64.08
2018-07-20T06:49:46.992Z,63.41
2018-07-20T06:50:46.995Z,63.60
2018-07-20T06:51:46.986Z,63.60
2018-07-20T06:52:46.973Z,63.82
2018-07-20T06:53:46.975Z,62.83
2018-07-20T06:54:47.004Z,62.86
2018-07-20T06:55:47.029Z,62.66
2018-07-20T06:56:47.009Z,62.66
2018-07-20T06:57:47.006Z,62.76
2018-07-20T06:58:46.989Z,62.48
2018-07-20T06:59:46.999Z,62.18
2018-07-20T07:00:46.994Z,62.38
2018-07-20T07:01:46.983Z,62.28
2018-07-20T07:02:47.009Z,62.28
2018-07-20T07:03:47.043Z,62.09
2018-07-20T07:04:47.014Z,62.09
2018-07-20T07:05:46.998Z,61.99
2018-07-20T07:06:47.009Z,62.28
2018-07-20T07:07:46.997Z,62.86
2018-07-20T07:08:46.997Z,62.18
2018-07-20T07:09:46.997Z,62.38
2018-07-20T07:10:47.008Z,62.28
2018-07-20T07:11:47.015Z,62.41
2018-07-20T07:12:47.016Z,62.12
2018-07-20T07:13:46.997Z,61.64
2018-07-20T07:14:47.015Z,62.02
2018-07-20T07:15:47.009Z,62.60
2018-07-20T07:16:46.994Z,61.25
2018-07-20T07:17:46.996Z,61.93
2018-07-20T07:18:47.013Z,61.54
2018-07-20T07:19:47.032Z,61.44
2018-07-20T07:20:47.026Z,61.44
2018-07-20T07:21:46.994Z,61.74
2018-07-20T07:22:47.068Z,61.35
2018-07-20T07:23:47.125Z,61.64
2018-07-20T07:24:47.017Z,61.25
2018-07-20T07:25:47.028Z,61.35
2018-07-20T07:26:47.017Z,62.02
2018-07-20T07:27:47.015Z,61.44
2018-07-20T07:28:47.019Z,61.25
2018-07-20T07:29:47.015Z,61.93
2018-07-20T07:30:47.024Z,61.47
2018-07-20T07:31:47.014Z,61.67
2018-07-20T07:32:47.032Z,61.57
2018-07-20T07:33:47.018Z,60.89
2018-07-20T07:34:47.028Z,60.80
2018-07-20T07:35:47.032Z,60.71
2018-07-20T07:36:47.016Z,60.93
2018-07-20T07:37:47.064Z,61.02
2018-07-20T07:38:47.154Z,61.41
2018-07-20T07:39:47.037Z,60.35
2018-07-20T07:40:47.035Z,59.48
2018-07-20T07:41:47.053Z,59.67
2018-07-20T07:42:47.014Z,59.38
2018-07-20T07:43:47.042Z,59.86
2018-07-20T07:44:47.058Z,59.86
2018-07-20T07:45:47.052Z,59.67
2018-07-20T07:46:47.076Z,59.86
2018-07-20T07:47:47.036Z,59.28
2018-07-20T07:48:47.055Z,59.67
2018-07-20T07:49:47.056Z,60.35
2018-07-20T07:50:47.042Z,60.38
2018-07-20T07:51:47.717Z,60.09
2018-07-20T07:52:47.078Z,59.60
2018-07-20T07:53:47.070Z,59.60
2018-07-20T07:54:47.049Z,59.02
2018-07-20T07:55:47.073Z,59.00
2018-07-20T07:56:47.118Z,59.02
2018-07-20T07:57:47.082Z,58.83
2018-07-20T07:58:47.121Z,59.22
2018-07-20T07:59:47.109Z,58.54
2018-07-20T08:00:47.098Z,58.35
2018-07-20T08:01:47.080Z,58.45
2018-07-20T08:02:47.096Z,58.06
2018-07-20T08:03:47.072Z,57.77
2018-07-20T08:04:47.193Z,57.77
2018-07-20T08:05:47.139Z,57.29
2018-07-20T08:06:47.078Z,57.09
2018-07-20T08:07:47.118Z,57.09
2018-07-20T08:08:47.080Z,57.38
2018-07-20T08:09:47.141Z,57.57
2018-07-20T08:10:47.092Z,58.06
2018-07-20T08:11:47.119Z,57.89
2018-07-20T08:12:47.102Z,57.41
2018-07-20T08:13:47.101Z,57.89
2018-07-20T08:14:47.103Z,57.21
2018-07-20T08:15:47.128Z,57.21
2018-07-20T08:16:47.091Z,57.03
2018-07-20T08:17:47.097Z,56.93
2018-07-20T08:18:47.131Z,56.45
2018-07-20T08:19:47.081Z,56.63
2018-07-20T08:20:47.139Z,56.47
2018-07-20T08:21:47.116Z,56.09
2018-07-20T08:22:47.174Z,55.87
2018-07-20T08:23:47.130Z,55.89
2018-07-20T08:24:47.131Z,56.37
2018-07-20T08:25:47.113Z,55.51
2018-07-20T08:26:47.176Z,55.70
2018-07-20T08:27:47.099Z,55.02
2018-07-20T08:28:47.153Z,54.93
2018-07-20T08:29:47.141Z,55.11
2018-07-20T08:30:47.124Z,54.85
2018-07-20T08:31:47.123Z,54.85
2018-07-20T08:32:47.147Z,54.85
2018-07-20T08:33:47.154Z,55.24
2018-07-20T08:34:47.118Z,55.15
2018-07-20T08:35:47.160Z,54.17
2018-07-20T08:36:47.143Z,54.66
2018-07-20T08:37:47.164Z,54.27
2018-07-20T08:38:47.123Z,53.89
2018-07-20T08:39:47.209Z,53.59
2018-07-20T08:40:47.131Z,53.41
2018-07-20T08:41:47.163Z,53.21
2018-07-20T08:42:47.158Z,52.92
2018-07-20T08:43:47.191Z,53.50
2018-07-20T08:44:47.165Z,52.75
2018-07-20T08:45:47.170Z,52.56
2018-07-20T08:46:47.159Z,51.95
2018-07-20T08:47:47.198Z,51.86
2018-07-20T08:48:47.187Z,52.36
2018-07-20T08:49:47.168Z,51.78
2018-07-20T08:50:47.188Z,51.95
2018-07-20T08:51:47.189Z,51.59
2018-07-20T08:52:47.191Z,51.20
2018-07-20T08:53:47.208Z,51.59
2018-07-20T08:54:47.232Z,51.10
2018-07-20T08:55:48.978Z,51.01
2018-07-20T08:56:47.179Z,50.82
2018-07-20T08:57:47.186Z,51.10
2018-07-20T08:58:47.213Z,50.92
2018-07-20T08:59:47.179Z,51.20
2018-07-20T09:00:47.206Z,50.94
2018-07-20T09:01:47.176Z,50.74
2018-07-20T09:02:47.206Z,50.74
2018-07-20T09:03:47.210Z,50.65
2018-07-20T09:04:47.208Z,50.55
2018-07-20T09:05:47.202Z,50.55
2018-07-20T09:06:47.186Z,50.65
2018-07-20T09:07:47.206Z,50.65
2018-07-20T09:08:47.213Z,50.55
2018-07-20T09:09:47.413Z,50.74
2018-07-20T09:10:47.228Z,50.35
2018-07-20T09:11:47.195Z,50.26
2018-07-20T09:12:47.202Z,49.97
2018-07-20T09:13:47.213Z,49.68
2018-07-20T09:14:47.223Z,49.77
2018-07-20T09:15:47.198Z,49.97
2018-07-20T09:16:47.215Z,49.97
2018-07-20T09:17:47.249Z,49.22
2018-07-20T09:18:47.232Z,49.22
2018-07-20T09:19:47.238Z,49.02
2018-07-20T09:20:47.270Z,49.22
2018-07-20T09:21:47.212Z,48.93
2018-07-20T09:22:47.230Z,49.02
2018-07-20T09:23:47.223Z,49.22
2018-07-20T09:24:47.244Z,48.47
2018-07-20T09:25:47.236Z,48.85
2018-07-20T09:26:47.261Z,48.76
2018-07-20T09:27:47.230Z,48.18
2018-07-20T09:28:47.264Z,48.66
2018-07-20T09:29:47.281Z,48.66
2018-07-20T09:30:47.290Z,48.37
2018-07-20T09:31:47.278Z,47.60
2018-07-20T09:32:47.276Z,48.08
2018-07-20T09:33:47.302Z,47.79
2018-07-20T09:34:47.312Z,48.00
2018-07-20T09:35:47.242Z,47.42
2018-07-20T09:36:47.295Z,47.13
2018-07-20T09:37:47.268Z,47.23
2018-07-20T09:38:47.308Z,47.23
2018-07-20T09:39:47.280Z,46.94
2018-07-20T09:40:47.310Z,46.94
2018-07-20T09:41:47.290Z,46.84
2018-07-20T09:42:47.347Z,46.84
2018-07-20T09:43:47.283Z,47.13
2018-07-20T09:44:47.326Z,47.23
2018-07-20T09:45:47.298Z,46.45
2018-07-20T09:46:47.295Z,46.84
2018-07-20T09:47:47.306Z,46.84
2018-07-20T09:48:47.341Z,45.99
2018-07-20T09:49:47.316Z,46.48
2018-07-20T09:50:47.331Z,45.80
2018-07-20T09:51:47.356Z,45.80
2018-07-20T09:52:48.278Z,45.24
2018-07-20T09:53:47.321Z,45.21
2018-07-20T09:54:47.328Z,44.92
2018-07-20T09:55:47.362Z,45.34
2018-07-20T09:56:53.907Z,45.04
2018-07-20T09:57:47.321Z,45.62
2018-07-20T09:58:47.335Z,45.24
2018-07-20T09:59:47.331Z,45.24
2018-07-20T10:00:47.341Z,44.58
2018-07-20T10:01:47.337Z,44.65
2018-07-20T10:02:47.341Z,45.24
2018-07-20T10:03:47.341Z,45.24
2018-07-20T10:04:47.348Z,45.14
2018-07-20T10:05:47.355Z,45.04
2018-07-20T10:06:47.344Z,44.75
2018-07-20T10:07:47.352Z,44.95
2018-07-20T10:08:47.360Z,44.65
2018-07-20T10:09:47.361Z,44.58
2018-07-20T10:10:47.390Z,44.29
2018-07-20T10:11:47.382Z,44.38
2018-07-20T10:12:47.455Z,44.00
2018-07-20T10:13:47.372Z,43.80
2018-07-20T10:14:47.384Z,44.07
2018-07-20T10:15:47.394Z,43.98
2018-07-20T10:16:47.404Z,44.29
2018-07-20T10:17:47.383Z,44.38
2018-07-20T10:18:47.400Z,43.41
2018-07-20T10:19:47.408Z,43.90
2018-07-20T10:20:47.413Z,43.51
2018-07-20T10:21:47.406Z,43.44
2018-07-20T10:22:47.411Z,42.95
2018-07-20T10:23:47.402Z,42.95
2018-07-20T10:24:47.414Z,43.34
2018-07-20T10:25:47.540Z,43.44
2018-07-20T10:26:47.430Z,42.46
2018-07-20T10:27:47.435Z,42.08
2018-07-20T10:28:47.439Z,41.88
2018-07-20T10:29:47.457Z,41.49
2018-07-20T10:30:47.432Z,41.90
2018-07-20T10:31:47.438Z,42.00
2018-07-20T10:32:47.451Z,42.10
2018-07-20T10:33:47.441Z,42.08
2018-07-20T10:34:47.451Z,42.08
2018-07-20T10:35:47.496Z,42.08
2018-07-20T10:36:56.377Z,41.49
2018-07-20T10:37:47.453Z,41.10
2018-07-20T10:38:47.474Z,40.83
2018-07-20T10:39:47.475Z,40.75
2018-07-20T10:40:47.594Z,39.86
2018-07-20T10:41:47.563Z,39.86
2018-07-20T10:42:47.464Z,39.94
2018-07-20T10:43:47.476Z,39.96
2018-07-20T10:44:48.108Z,40.37
2018-07-20T10:45:47.531Z,40.44
2018-07-20T10:46:47.620Z,39.86
2018-07-20T10:47:47.513Z,40.25
2018-07-20T10:48:47.526Z,40.27
2018-07-20T10:49:47.516Z,40.08
2018-07-20T10:50:47.524Z,39.98
2018-07-20T10:51:47.536Z,40.95
2018-07-20T10:52:47.542Z,40.34
2018-07-20T10:53:47.587Z,40.37
2018-07-20T10:54:47.513Z,40.95
2018-07-20T10:55:47.535Z,40.37
2018-07-20T10:56:47.571Z,40.08
2018-07-20T10:57:47.526Z,39.98
2018-07-20T10:58:47.533Z,40.08
2018-07-20T10:59:47.559Z,40.08
2018-07-20T11:00:47.565Z,40.37
2018-07-20T11:01:47.552Z,40.27
2018-07-20T11:02:47.563Z,39.88
2018-07-20T11:03:47.555Z,40.08
2018-07-20T11:04:47.565Z,39.29
2018-07-20T11:05:47.568Z,40.09
2018-07-20T11:06:47.575Z,39.61
2018-07-20T11:07:47.569Z,39.31
2018-07-20T11:08:47.581Z,39.04
2018-07-20T11:09:47.609Z,38.75
2018-07-20T11:10:47.642Z,38.38
2018-07-20T11:11:47.621Z,37.79
2018-07-20T11:12:47.601Z,37.58
2018-07-20T11:13:47.677Z,37.87
2018-07-20T11:14:47.591Z,37.97
2018-07-20T11:15:47.617Z,37.48
2018-07-20T11:16:47.600Z,37.79
2018-07-20T11:17:47.620Z,37.97
2018-07-20T11:18:47.633Z,38.17
2018-07-20T11:19:47.628Z,38.07
2018-07-20T11:20:47.649Z,38.07
2018-07-20T11:21:47.640Z,38.17
2018-07-20T11:22:47.770Z,38.18
2018-07-20T11:23:47.649Z,37.91
2018-07-20T11:24:47.632Z,37.79
2018-07-20T11:25:47.671Z,37.99
2018-07-20T11:26:47.665Z,37.99
2018-07-20T11:27:47.669Z,37.62
2018-07-20T11:28:47.654Z,37.13
2018-07-20T11:29:47.674Z,36.84
2018-07-20T11:30:47.681Z,36.45
2018-07-20T11:31:47.726Z,36.18
2018-07-20T11:32:47.678Z,36.19
2018-07-20T11:33:47.688Z,37.25
2018-07-20T11:34:47.716Z,37.93
2018-07-20T11:35:47.712Z,37.54
2018-07-20T11:36:47.688Z,36.71
2018-07-20T11:37:47.701Z,36.92
2018-07-20T11:38:47.745Z,36.06
2018-07-20T11:39:47.743Z,36.18
2018-07-20T11:40:47.714Z,35.78
2018-07-20T11:41:47.745Z,35.69
2018-07-20T11:42:47.755Z,35.69
2018-07-20T11:43:47.743Z,35.57
2018-07-20T11:44:47.766Z,35.67
2018-07-20T11:45:47.774Z,35.10
2018-07-20T11:46:47.762Z,35.39
2018-07-20T11:47:47.792Z,34.92
2018-07-20T11:48:47.770Z,34.26
2018-07-20T11:49:47.782Z,34.55
2018-07-20T11:50:47.762Z,33.98
2018-07-20T11:51:47.790Z,33.89
2018-07-20T11:52:47.792Z,33.89
2018-07-20T11:53:47.810Z,33.79
2018-07-20T11:54:47.818Z,34.18
2018-07-20T11:55:47.790Z,34.00
2018-07-20T11:56:47.808Z,33.79
2018-07-20T11:57:47.813Z,33.85
2018-07-20T11:58:47.852Z,34.45
2018-07-20T11:59:47.864Z,33.87
2018-07-20T12:00:47.844Z,34.05
2018-07-20T12:01:47.876Z,34.36
2018-07-20T12:02:47.875Z,34.45
2018-07-20T12:03:47.844Z,34.06
2018-07-20T12:04:47.832Z,33.79
2018-07-20T12:05:47.871Z,34.18
2018-07-20T12:06:48.960Z,33.98
2018-07-20T12:07:47.873Z,33.40
2018-07-20T12:08:47.873Z,33.31
2018-07-20T12:09:47.888Z,33.51
2018-07-20T12:10:47.910Z,33.59
2018-07-20T12:11:47.895Z,34.08
2018-07-20T12:12:47.935Z,34.38
2018-07-20T12:13:47.910Z,33.80
2018-07-20T12:14:47.916Z,33.79
2018-07-20T12:15:48.932Z,34.08
2018-07-20T12:16:47.931Z,34.77
2018-07-20T12:17:47.934Z,34.86
2018-07-20T12:18:47.958Z,34.86
2018-07-20T12:19:47.932Z,35.06
2018-07-20T12:20:47.953Z,34.65
2018-07-20T12:21:47.970Z,35.04
2018-07-20T12:22:47.987Z,35.55
2018-07-20T12:23:47.980Z,35.53
2018-07-20T12:24:47.964Z,35.92
2018-07-20T12:25:47.978Z,35.82
2018-07-20T12:26:47.993Z,35.63
2018-07-20T12:27:48.086Z,35.72
2018-07-20T12:28:48.010Z,35.82
2018-07-20T12:29:47.991Z,35.64
2018-07-20T12:30:47.992Z,35.24
2018-07-20T12:31:47.997Z,35.35
2018-07-20T12:32:48.005Z,34.86
2018-07-20T12:33:48.021Z,34.39
2018-07-20T12:34:48.017Z,34.48
2018-07-20T12:35:48.027Z,34.48
2018-07-20T12:36:48.038Z,34.89
2018-07-20T12:37:48.068Z,34.41
2018-07-20T12:38:48.061Z,34.50
2018-07-20T12:39:48.068Z,34.01
2018-07-20T12:40:48.089Z,34.31
2018-07-20T12:41:48.079Z,34.21
2018-07-20T12:42:48.096Z,33.45
2018-07-20T12:43:48.089Z,33.45
2018-07-20T12:44:48.125Z,32.99
2018-07-20T12:45:48.115Z,32.79
2018-07-20T12:46:48.130Z,32.70
2018-07-20T12:47:48.115Z,32.90
2018-07-20T12:48:48.127Z,32.51
2018-07-20T12:49:48.155Z,31.93
2018-07-20T12:50:48.155Z,32.34
2018-07-20T12:51:48.154Z,32.04
2018-07-20T12:52:48.182Z,31.67
2018-07-20T12:53:48.194Z,31.07
2018-07-20T12:54:48.197Z,30.88
2018-07-20T12:55:48.221Z,30.21
2018-07-20T12:56:48.221Z,29.52
2018-07-20T12:57:48.237Z,29.33